Latest Weather Observations for Dartmoor

IDV60801

Issued at 3:32 pm EDT Monday 30 March 2020 (issued every 10 minutes, with the page automatically refreshed every 10 minutes)

About weather observations | Map of weather stations | Latest weather observations for VIC | Other Formats
Station Details ID: 090194 Name: DARTMOOR Lat: -37.92 Lon: 141.26 Height: 51.0 m
Data from the previous 72 hours. | See also: Recent months at Dartmoor
Date/Time
EDT
Temp
°C
App
Temp
°C
Dew
Point
°C
Rel
Hum
%
Delta-T
°C
Wind Press
QNH
hPa
Press
MSL
hPa
Rain since
9am
mm
Dir  Spd
km/h
Gust
km/h
Spd
kts
Gust
kts
30/03:30pm 21.0 17.6 11.3 54 5.4 WNW 20 32 11 17 1013.5 1013.4 0.2
30/03:00pm 20.3 17.3 11.8 58 4.7 W 19 32 10 17 1013.5 1013.4 0.2
30/02:30pm 21.4 19.2 12.0 55 5.3 WNW 15 30 8 16 1013.5 1013.4 0.2
30/02:00pm 19.4 16.1 12.7 65 3.8 WNW 22 32 12 17 1013.8 1013.7 0.2
30/01:30pm 19.8 17.3 14.2 70 3.2 WNW 20 28 11 15 1014.0 1013.9 0.0
30/01:00pm 16.2 16.1 15.9 98 0.2 NW 11 17 6 9 1014.3 1014.2 0.0
30/12:30pm 16.3 14.4 14.3 88 1.1 W 17 24 9 13 1014.3 1014.2 0.0
30/12:00pm 17.6 14.8 13.1 75 2.5 NW 20 30 11 16 1014.1 1014.0 0.0
30/11:30am 16.9 15.5 14.4 85 1.4 NW 15 24 8 13 1014.2 1014.1 0.0
30/11:00am 15.6 14.4 15.1 97 0.3 NW 15 22 8 12 1014.4 1014.3 0.0
30/10:30am 14.5 13.4 14.2 98 0.2 NW 13 20 7 11 1014.2 1014.1 0.0
30/10:00am 13.4 12.7 13.2 99 0.1 NNW 9 17 5 9 1014.0 1013.9 0.0
30/09:30am 12.8 11.5 12.6 99 0.1 NNW 11 15 6 8 1013.9 1013.8 0.0
30/09:00am 12.3 10.9 12.1 99 0.1 NW 11 17 6 9 1013.4 1013.3 0.4
30/08:30am 11.6 10.3 11.4 99 0.1 NNW 9 13 5 7 1013.0 1012.9 0.4
30/08:00am 11.6 10.9 11.4 99 0.1 NNW 6 7 3 4 1012.7 1012.6 0.4
30/07:30am 11.8 11.0 11.6 99 0.1 N 7 9 4 5 1012.2 1012.1 0.4
30/07:00am 12.1 11.0 11.9 99 0.1 NNW 9 15 5 8 1011.9 1011.8 0.4
30/06:30am 12.6 12.0 12.4 99 0.1 NNW 7 11 4 6 1011.7 1011.6 0.4
30/06:00am 12.9 12.0 12.7 99 0.1 NW 9 13 5 7 1011.8 1011.7 0.2
30/05:30am 12.8 12.3 12.6 99 0.1 N 7 11 4 6 1011.4 1011.3 0.2
30/05:00am 12.6 12.2 12.4 99 0.1 NW 6 7 3 4 1011.7 1011.6 0.2
30/04:30am 12.5 11.9 12.3 99 0.1 NNW 7 9 4 5 1011.6 1011.5 0.2
30/04:00am 13.0 12.2 12.8 99 0.1 NNW 9 17 5 9 1011.6 1011.5 0.2
30/03:30am 13.3 13.1 13.1 99 0.1 NNW 6 9 3 5 1011.7 1011.6 0.2
30/03:00am 13.7 13.5 13.5 99 0.1 NNW 7 13 4 7 1012.0 1011.9 0.2
30/02:30am 13.4 12.7 13.1 98 0.2 NNW 9 13 5 7 1012.2 1012.1 0.2
30/02:00am 13.2 12.4 12.9 98 0.2 NNW 9 13 5 7 1012.3 1012.2 0.2
30/01:30am 13.1 12.6 12.8 98 0.2 NNW 7 11 4 6 1012.2 1012.1 0.2
30/01:00am 13.4 12.3 13.1 98 0.2 NNW 11 15 6 8 1012.1 1012.0 0.2
30/12:30am 13.7 13.1 13.4 98 0.2 NW 9 15 5 8 1012.1 1012.0 0.2
30/12:00am 13.4 13.0 13.1 98 0.2 NNW 7 13 4 7 1012.1 1012.0 0.2
 
Date/Time
EDT
Temp
°C
App
Temp
°C
Dew
Point
°C
Rel
Hum
%
Delta-T
°C
Wind Press
QNH
hPa
Press
MSL
hPa
Rain since
9am
mm
Dir  Spd
km/h
Gust
km/h
Spd
kts
Gust
kts
29/11:30pm 13.5 13.4 13.2 98 0.2 NNW 6 9 3 5 1012.1 1012.0 0.2
29/11:00pm 14.1 14.0 13.8 98 0.2 NNW 7 15 4 8 1012.0 1011.9 0.2
29/10:30pm 14.5 14.6 14.0 97 0.3 NW 6 9 3 5 1011.9 1011.8 0.2
29/10:00pm 14.6 14.4 13.6 94 0.6 NW 7 9 4 5 1011.7 1011.6 0.2
29/09:30pm 15.3 15.3 13.7 90 0.9 NW 6 7 3 4 1011.6 1011.5 0.2
29/09:00pm 16.0 15.8 13.7 86 1.3 WNW 7 11 4 6 1011.4 1011.3 0.2
29/08:30pm 16.6 15.0 12.9 79 2.1 W 13 20 7 11 1010.8 1010.7 0.2
29/08:00pm 17.6 16.1 13.1 75 2.5 WSW 13 22 7 12 1010.2 1010.1 0.2
29/07:30pm 18.5 16.9 12.9 70 3.2 W 13 19 7 10 1009.8 1009.7 0.2
29/07:00pm 19.7 18.1 12.7 64 4.0 W 13 20 7 11 1009.4 1009.3 0.2
29/06:30pm 21.3 19.2 12.4 57 5.0 WNW 15 26 8 14 1008.9 1008.8 0.2
29/06:00pm 21.9 19.1 12.7 56 5.3 W 19 32 10 17 1008.4 1008.3 0.2
29/05:30pm 23.4 19.5 10.8 45 7.0 WNW 22 37 12 20 1007.8 1007.8 0.2
29/05:00pm 23.9 19.8 10.2 42 7.6 WNW 22 37 12 20 1007.4 1007.4 0.2
29/04:30pm 24.6 19.5 9.3 38 8.3 NW 26 43 14 23 1007.2 1007.2 0.2
29/04:00pm 24.8 20.4 10.3 40 8.1 NW 24 39 13 21 1007.1 1007.1 0.2
29/03:30pm 23.8 19.6 12.4 48 6.5 NW 26 35 14 19 1007.2 1007.2 0.2
29/03:00pm 24.1 21.1 14.8 56 5.6 NW 24 37 13 20 1007.5 1007.5 0.2
29/02:34pm 24.7 20.3 13.0 48 6.8 NW 28 46 15 25 1007.6 1007.6 0.2
29/02:30pm 24.8 20.4 13.0 47 6.9 NW 28 37 15 20 1007.7 1007.7 0.2
29/02:00pm 22.9 18.2 11.9 50 6.2 NNW 28 41 15 22 1008.2 1008.1 0.2
29/01:32pm 23.2 17.8 10.9 46 6.8 NNW 30 48 16 26 1008.2 1008.1 0.2
29/01:30pm 23.5 18.5 10.9 45 7.0 NNW 28 44 15 24 1008.3 1008.2 0.2
29/01:00pm 23.7 18.5 11.7 47 6.8 N 30 43 16 23 1008.0 1007.9 0.2
29/12:35pm 22.0 17.2 11.7 52 5.8 N 28 48 15 26 1008.1 1008.0 0.2
29/12:30pm 21.8 17.9 12.1 54 5.5 N 24 41 13 22 1008.5 1008.4 0.2
29/12:00pm 20.4 16.3 11.6 57 4.9 N 24 41 13 22 1008.7 1008.6 0.2
29/11:30am 20.1 17.0 12.1 60 4.5 N 20 28 11 15 1008.4 1008.3 0.2
29/11:00am 20.1 16.5 13.1 64 4.0 N 24 37 13 20 1008.2 1008.1 0.2
29/10:30am 19.8 16.0 13.7 68 3.5 N 26 39 14 21 1009.2 1009.1 0.2
29/10:00am 21.3 17.2 13.7 62 4.4 N 28 46 15 25 1008.7 1008.6 0.0
29/09:55am 21.9 17.6 13.3 58 5.0 N 28 46 15 25 1008.6 1008.5 0.0
29/09:30am 22.4 18.8 13.2 56 5.3 N 24 37 13 20 1007.8 1007.8 0.0
29/09:00am 22.5 19.8 13.6 57 5.2 N 20 33 11 18 1007.3 1007.3 0.0
29/08:30am 22.1 19.7 13.7 59 4.9 N 19 28 10 15 1007.3 1007.3 0.0
29/08:00am 23.3 19.7 12.9 52 6.0 N 24 33 13 18 1007.1 1007.1 0.0
29/07:30am 24.1 21.1 12.1 47 6.8 N 19 32 10 17 1007.2 1007.2 0.0
29/07:00am 24.0 21.0 12.0 47 6.8 N 19 30 10 16 1007.0 1007.0 0.0
29/06:30am 24.0 20.4 11.7 46 7.0 N 22 37 12 20 1007.0 1007.0 0.0
29/06:00am 23.9 20.2 11.6 46 7.0 N 22 32 12 17 1006.8 1006.8 0.0
29/05:30am 23.7 20.6 11.7 47 6.8 NNE 19 28 10 15 1007.0 1007.0 0.0
29/05:00am 23.3 20.2 11.7 48 6.6 NNE 19 28 10 15 1007.1 1007.1 0.0
29/04:30am 23.6 20.9 11.6 47 6.8 NNE 17 28 9 15 1007.2 1007.2 0.0
29/04:00am 23.9 20.2 11.6 46 7.0 NNE 22 35 12 19 1007.4 1007.4 0.0
29/03:30am 23.9 20.6 11.6 46 6.9 NNE 20 32 11 17 1007.8 1007.8 0.0
29/03:00am 24.0 20.2 11.3 45 7.2 NNE 22 37 12 20 1008.2 1008.1 0.0
29/02:30am 23.8 20.4 11.2 45 7.1 NNE 20 30 11 16 1008.6 1008.5 0.0
29/02:00am 22.5 19.9 10.6 47 6.6 NNE 15 22 8 12 1008.9 1008.8 0.0
29/01:30am 20.8 18.7 9.7 49 6.0 NE 11 17 6 9 1009.3 1009.2 0.0
29/01:00am 18.7 16.4 7.5 48 5.7 NE 9 9 5 5 1009.9 1009.8 0.0
29/12:30am 18.9 16.1 7.0 46 6.0 NE 11 15 6 8 1010.2 1010.1 0.0
29/12:00am 16.1 14.1 6.3 52 4.8 ENE 6 7 3 4 1010.6 1010.5 0.0
 
Date/Time
EDT
Temp
°C
App
Temp
°C
Dew
Point
°C
Rel
Hum
%
Delta-T
°C
Wind Press
QNH
hPa
Press
MSL
hPa
Rain since
9am
mm
Dir  Spd
km/h
Gust
km/h
Spd
kts
Gust
kts
28/11:30pm 17.3 15.2 5.9 47 5.6 ENE 6 6 3 3 1011.4 1011.3 0.0
28/11:00pm 18.0 16.4 6.2 46 5.8 NE 4 6 2 3 1011.7 1011.6 0.0
28/10:30pm 17.7 16.2 6.6 48 5.5 E 4 6 2 3 1011.9 1011.8 0.0
28/10:00pm 18.9 17.3 6.4 44 6.2 ENE 4 7 2 4 1012.3 1012.2 0.0
28/09:30pm 19.7 18.1 6.4 42 6.7 ENE 4 6 2 3 1012.5 1012.4 0.0
28/09:00pm 20.3 18.7 6.3 40 7.0 E 4 4 2 2 1012.5 1012.4 0.0
28/08:30pm 21.6 19.5 5.9 36 7.9 SSE 6 7 3 4 1012.4 1012.3 0.0
28/08:00pm 22.6 20.5 6.0 34 8.4 S 6 9 3 5 1012.0 1011.9 0.0
28/07:30pm 25.6 23.3 2.9 23 11.1 SW 4 6 2 3 1012.0 1011.9 0.0
28/07:00pm 28.2 25.0 5.1 23 11.9 NW 11 19 6 10 1011.8 1011.7 0.0
28/06:30pm 29.5 24.8 6.2 23 12.4 NNW 20 33 11 18 1011.6 1011.5 0.0
28/06:00pm 29.6 25.5 6.3 23 12.4 NNW 17 32 9 17 1011.7 1011.6 0.0
28/05:30pm 30.5 26.1 6.4 22 12.9 NNW 19 33 10 18 1012.0 1011.9 0.0
28/05:00pm 30.8 25.5 6.6 22 13.0 NNW 24 39 13 21 1012.2 1012.1 0.0
28/04:30pm 30.4 26.2 7.6 24 12.4 NNW 19 28 10 15 1012.2 1012.1 0.0
28/04:00pm 30.1 25.4 7.9 25 12.2 NNW 22 33 12 18 1012.6 1012.5 0.0
28/03:30pm 30.7 24.9 7.8 24 12.6 NNW 28 44 15 24 1012.8 1012.7 0.0
28/03:00pm 30.4 25.8 8.2 25 12.2 N 22 35 12 19 1013.1 1013.0 0.0
28/02:32pm 30.3 24.7 8.7 26 12.0 NW 28 50 15 27 1013.4 1013.3 0.0
28/02:30pm 29.6 24.2 8.1 26 11.8 NW 26 41 14 22 1013.5 1013.4 0.0
28/02:01pm 30.4 24.8 8.7 26 12.1 NNW 28 50 15 27 1014.0 1013.9 0.0
28/02:00pm 30.1 24.8 8.5 26 11.9 NNW 26 50 14 27 1014.0 1013.9 0.0
28/01:30pm 29.9 25.0 8.3 26 11.9 N 24 37 13 20 1014.4 1014.3 0.0
28/01:15pm 30.1 24.4 8.5 26 11.9 NNW 28 46 15 25 1014.7 1014.6 0.0
28/01:00pm 29.4 24.0 9.5 29 11.1 NNW 28 44 15 24 1015.0 1014.9 0.0
28/12:30pm 29.3 24.3 9.4 29 11.1 NNW 26 39 14 21 1015.4 1015.3 0.0
28/12:00pm 28.5 24.7 11.1 34 10.0 N 22 33 12 18 1015.8 1015.7 0.0
28/11:30am 28.0 24.8 11.1 35 9.7 N 19 30 10 16 1016.2 1016.1 0.0
28/11:00am 26.5 23.1 10.6 37 8.9 N 19 33 10 18 1016.7 1016.6 0.0
28/10:30am 25.2 22.3 9.5 37 8.6 N 15 24 8 13 1016.9 1016.8 0.0
28/10:00am 23.8 20.7 9.0 39 8.0 N 15 19 8 10 1017.2 1017.1 0.0
28/09:30am 22.1 19.3 8.6 42 7.2 NNE 13 20 7 11 1017.4 1017.3 0.0
28/09:00am 20.7 18.2 8.4 45 6.4 NNE 11 17 6 9 1017.5 1017.4 0.0
28/08:30am 19.2 16.7 8.2 49 5.7 NNE 11 19 6 10 1017.4 1017.3 0.0
28/08:00am 18.1 15.6 8.1 52 5.1 NNE 11 17 6 9 1017.4 1017.3 0.0
28/07:30am 17.7 15.6 8.3 54 4.8 NNE 9 13 5 7 1017.3 1017.2 0.0
28/07:00am 17.6 15.6 8.5 55 4.7 NNE 9 13 5 7 1017.2 1017.1 0.0
28/06:30am 17.1 15.1 8.5 57 4.4 NNE 9 13 5 7 1017.3 1017.2 0.0
28/06:00am 16.5 14.6 9.2 62 3.8 NNE 9 15 5 8 1017.3 1017.2 0.0
28/05:30am 13.2 12.0 10.4 83 1.5 NNE 7 11 4 6 1017.3 1017.2 0.0
28/05:00am 14.0 12.9 10.6 80 1.8 NNE 7 11 4 6 1017.2 1017.1 0.0
28/04:30am 12.2 11.3 10.8 91 0.7 NNE 6 9 3 5 1017.2 1017.1 0.0
28/04:00am 12.8 13.1 11.0 89 0.9 CALM 0 2 0 1 1017.5 1017.4 0.0
28/03:30am 13.1 12.6 10.8 86 1.2 E 4 4 2 2 1017.7 1017.6 0.0
28/03:00am 13.2 13.5 10.9 86 1.2 CALM 0 2 0 1 1018.2 1018.1 0.0
28/02:30am 13.5 13.0 10.7 83 1.5 ENE 4 4 2 2 1018.4 1018.3 0.0
28/02:00am 14.3 13.8 10.9 80 1.8 ENE 4 6 2 3 1018.6 1018.5 0.0
28/01:30am 14.5 13.7 10.9 79 1.9 ENE 6 7 3 4 1018.9 1018.8 0.0
28/01:00am 13.9 13.4 10.9 82 1.6 ENE 4 4 2 2 1019.1 1019.0 0.0
28/12:30am 13.7 13.4 11.4 86 1.2 ESE 4 6 2 3 1019.2 1019.1 0.0
28/12:00am 13.2 12.5 11.3 88 1.0 SE 6 6 3 3 1019.4 1019.3 0.0
 
Date/Time
EDT
Temp
°C
App
Temp
°C
Dew
Point
°C
Rel
Hum
%
Delta-T
°C
Wind Press
QNH
hPa
Press
MSL
hPa
Rain since
9am
mm
Dir  Spd
km/h
Gust
km/h
Spd
kts
Gust
kts
27/11:30pm 13.0 12.2 11.1 88 1.0 SE 6 6 3 3 1019.7 1019.6 0.0
27/11:00pm 14.1 13.8 11.4 84 1.4 SE 4 6 2 3 1020.0 1019.9 0.0
27/10:30pm 14.7 14.1 11.7 82 1.6 ESE 6 7 3 4 1020.0 1019.9 0.0
27/10:00pm 14.6 14.0 12.3 86 1.2 SSE 7 9 4 5 1020.2 1020.1 0.0
27/09:30pm 15.3 14.8 11.9 80 1.8 SSE 6 7 3 4 1020.3 1020.2 0.0
27/09:00pm 15.9 15.1 11.7 76 2.3 ESE 7 11 4 6 1020.2 1020.1 0.0
27/08:30pm 16.5 15.5 12.3 76 2.3 ESE 9 11 5 6 1020.2 1020.1 0.0
27/08:00pm 17.3 16.3 12.4 73 2.7 ESE 9 13 5 7 1020.1 1020.0 0.0
27/07:30pm 18.1 16.3 12.1 68 3.3 ESE 13 15 7 8 1020.2 1020.1 0.0
27/07:00pm 19.0 16.0 10.8 59 4.4 ESE 17 22 9 12 1020.2 1020.1 0.0
27/06:30pm 21.1 18.3 11.2 53 5.5 ESE 17 24 9 13 1019.9 1019.8 0.0
27/06:00pm 22.6 19.8 11.4 49 6.2 ESE 17 24 9 13 1019.8 1019.7 0.0
27/05:30pm 24.1 21.9 12.1 47 6.8 ESE 15 20 8 11 1019.9 1019.8 0.0
27/05:00pm 24.6 21.3 10.8 42 7.7 S 19 24 10 13 1019.9 1019.8 0.0
27/04:30pm 24.4 21.5 11.0 43 7.5 SSW 17 24 9 13 1020.2 1020.1 0.0
27/04:00pm 26.1 22.9 8.6 33 9.5 S 15 20 8 11 1020.6 1020.5 0.0

Other formats

Comma delimited format used in spreadsheet applications
http://www.bom.gov.au/fwo/IDV60801/IDV60801.95822.axf

JavaScript Object Notation format (JSON) in row-major order
http://www.bom.gov.au/fwo/IDV60801/IDV60801.95822.json

Data quality

Most of these data are generated automatically and are frequently updated. Quality checks on data are not normally performed. It is possible for incorrect values to appear. Refer to information at About Latest Weather Observations and please check the disclaimer before using these data.